createdAt,value
2018-01-04T00:01:49.060Z,37.17
2018-01-04T00:04:16.722Z,51.00
2018-01-04T00:06:44.395Z,58.70
2018-01-04T00:09:12.114Z,43.30
2018-01-04T00:11:39.766Z,44.30
2018-01-04T00:14:07.511Z,35.90
2018-01-04T00:16:35.106Z,42.67
2018-01-04T00:19:02.710Z,42.47
2018-01-04T00:21:30.313Z,32.10
2018-01-04T00:23:57.962Z,32.67
2018-01-04T00:26:25.558Z,36.50
2018-01-04T00:28:53.162Z,37.27
2018-01-04T00:31:20.782Z,25.83
2018-01-04T00:33:48.422Z,23.10
2018-01-04T00:36:16.127Z,22.70
2018-01-04T00:38:43.731Z,29.80
2018-01-04T00:41:11.327Z,31.23
2018-01-04T00:43:38.998Z,35.20
2018-01-04T00:46:06.660Z,41.23
2018-01-04T00:48:34.378Z,36.77
2018-01-04T00:51:01.974Z,44.73
2018-01-04T00:53:29.571Z,41.53
2018-01-04T00:55:57.322Z,40.23
2018-01-04T00:58:24.927Z,32.07
2018-01-04T01:00:52.607Z,25.07
2018-01-04T01:03:20.211Z,27.33
2018-01-04T01:05:47.819Z,29.57
2018-01-04T01:08:15.418Z,32.00
2018-01-04T01:10:43.023Z,34.93
2018-01-04T01:13:10.747Z,31.53
2018-01-04T01:15:38.382Z,23.23
2018-01-04T01:18:05.982Z,18.97
2018-01-04T01:20:33.643Z,16.40
2018-01-04T01:23:01.236Z,17.57
2018-01-04T01:25:28.948Z,11.67
2018-01-04T01:27:56.602Z,18.47
2018-01-04T01:30:24.206Z,29.83
2018-01-04T01:32:51.811Z,19.83
2018-01-04T01:35:19.414Z,23.07
2018-01-04T01:37:47.094Z,23.40
2018-01-04T01:40:14.687Z,19.97
2018-01-04T01:42:42.290Z,22.20
2018-01-04T01:45:09.898Z,26.73
2018-01-04T01:47:37.579Z,27.47
2018-01-04T01:50:05.242Z,27.40
2018-01-04T01:52:32.835Z,22.30
2018-01-04T01:55:00.439Z,26.17
2018-01-04T01:57:28.103Z,32.37
2018-01-04T01:59:55.702Z,37.70
2018-01-04T02:02:23.373Z,65.23
2018-01-04T02:04:50.970Z,59.33
2018-01-04T02:07:18.646Z,49.57
2018-01-04T02:09:46.251Z,39.77
2018-01-04T02:12:13.914Z,44.30
2018-01-04T02:14:41.570Z,47.63
2018-01-04T02:17:09.166Z,38.60
2018-01-04T02:19:48.567Z,38.17
2018-01-04T02:22:28.106Z,38.97
2018-01-04T02:25:07.758Z,27.97
2018-01-04T02:27:47.206Z,20.73
2018-01-04T02:30:26.602Z,23.20
2018-01-04T02:33:05.867Z,25.47
2018-01-04T02:35:45.430Z,24.70
2018-01-04T02:38:24.800Z,26.10
2018-01-04T02:41:05.966Z,25.53
2018-01-04T02:43:45.427Z,31.73
2018-01-04T02:46:23.782Z,28.07
2018-01-04T02:48:51.387Z,30.37
2018-01-04T02:51:18.994Z,24.97
2018-01-04T02:53:46.667Z,28.60
2018-01-04T02:56:14.327Z,27.43
2018-01-04T02:58:41.999Z,28.33
2018-01-04T03:01:09.675Z,24.40
2018-01-04T03:03:37.335Z,28.60
2018-01-04T03:06:04.950Z,23.47
2018-01-04T03:08:32.559Z,23.00
2018-01-04T03:11:00.206Z,28.67
2018-01-04T03:13:27.798Z,36.93
2018-01-04T03:15:55.458Z,41.83
2018-01-04T03:18:23.066Z,42.23
2018-01-04T03:20:50.659Z,45.23
2018-01-04T03:23:23.850Z,43.60
2018-01-04T03:25:56.961Z,52.13
2018-01-04T03:28:30.099Z,62.80
2018-01-04T03:31:03.196Z,61.17
2018-01-04T03:33:36.452Z,46.63
2018-01-04T03:36:09.554Z,51.10
2018-01-04T03:38:42.763Z,50.07
2018-01-04T03:41:16.010Z,44.97
2018-01-04T03:43:49.303Z,39.17
2018-01-04T03:46:22.618Z,48.00
2018-01-04T03:48:55.812Z,47.73
2018-01-04T03:51:29.176Z,49.10
2018-01-04T03:54:02.369Z,60.03
2018-01-04T03:56:35.487Z,47.40
2018-01-04T03:59:08.730Z,46.87
2018-01-04T04:01:41.947Z,44.20
2018-01-04T04:04:15.247Z,41.50
2018-01-04T04:06:42.903Z,46.87
2018-01-04T04:09:10.502Z,40.70
2018-01-04T04:11:38.167Z,52.83
2018-01-04T04:14:05.765Z,41.60
2018-01-04T04:16:33.414Z,43.80
2018-01-04T04:19:01.013Z,39.30
2018-01-04T04:21:28.607Z,65.60
2018-01-04T04:23:56.215Z,50.97
2018-01-04T04:26:23.823Z,45.27
2018-01-04T04:28:51.477Z,37.83
2018-01-04T04:31:19.086Z,40.63
2018-01-04T04:33:46.743Z,39.87
2018-01-04T04:36:14.419Z,36.97
2018-01-04T04:38:42.023Z,41.83
2018-01-04T04:41:09.684Z,39.67
2018-01-04T04:43:37.352Z,33.80
2018-01-04T04:46:05.012Z,54.40
2018-01-04T04:48:32.680Z,46.00
2018-01-04T04:51:00.338Z,36.20
2018-01-04T04:53:27.991Z,37.10
2018-01-04T04:55:55.590Z,42.70
2018-01-04T04:58:23.188Z,45.10
2018-01-04T05:00:50.851Z,56.17
2018-01-04T05:03:18.472Z,39.33
2018-01-04T05:05:46.150Z,41.77
2018-01-04T05:08:13.743Z,43.23
2018-01-04T05:10:41.342Z,74.77
2018-01-04T05:13:08.950Z,79.50
2018-01-04T05:15:36.543Z,90.27
2018-01-04T05:18:04.262Z,52.33
2018-01-04T05:20:31.859Z,55.70
2018-01-04T05:22:59.458Z,80.07
2018-01-04T05:25:27.058Z,75.33
2018-01-04T05:27:54.710Z,84.67
2018-01-04T05:30:22.423Z,84.97
2018-01-04T05:32:50.022Z,61.13
2018-01-04T05:35:17.615Z,40.07
2018-01-04T05:37:45.282Z,38.80
2018-01-04T05:40:12.878Z,40.90
2018-01-04T05:42:40.596Z,36.03
2018-01-04T05:45:08.192Z,33.30
2018-01-04T05:47:35.789Z,31.30
2018-01-04T05:50:03.401Z,36.20
2018-01-04T05:52:30.998Z,28.23
2018-01-04T05:54:58.646Z,28.10
2018-01-04T05:57:26.243Z,38.33
2018-01-04T05:59:53.902Z,33.03
2018-01-04T06:02:21.511Z,34.37
2018-01-04T06:04:49.124Z,34.60
2018-01-04T06:07:16.831Z,45.40
2018-01-04T06:09:44.429Z,49.27
2018-01-04T06:12:12.078Z,51.57
2018-01-04T06:14:39.682Z,35.80
2018-01-04T06:17:07.278Z,44.60
2018-01-04T06:19:35.005Z,46.67
2018-01-04T06:22:02.667Z,39.77
2018-01-04T06:24:30.260Z,40.53
2018-01-04T06:26:57.861Z,47.53
2018-01-04T06:29:25.459Z,43.33
2018-01-04T06:31:53.175Z,52.07
2018-01-04T06:34:20.774Z,48.20
2018-01-04T06:36:48.431Z,45.40
2018-01-04T06:39:16.038Z,51.10
2018-01-04T06:41:43.697Z,49.30
2018-01-04T06:44:11.456Z,39.73
2018-01-04T06:46:39.059Z,45.23
2018-01-04T06:49:06.658Z,42.77
2018-01-04T06:51:34.319Z,60.37
2018-01-04T06:54:01.923Z,52.27
2018-01-04T06:56:29.570Z,48.30
2018-01-04T06:58:57.335Z,45.67
2018-01-04T07:01:24.985Z,26.87
2018-01-04T07:03:52.606Z,39.10
2018-01-04T07:06:20.265Z,24.90
2018-01-04T07:08:47.986Z,42.37
2018-01-04T07:11:15.591Z,48.20
2018-01-04T07:13:43.255Z,44.67
2018-01-04T07:16:10.862Z,34.13
2018-01-04T07:18:38.519Z,39.07
2018-01-04T07:21:06.177Z,39.27
2018-01-04T07:23:33.834Z,37.47
2018-01-04T07:26:01.430Z,40.23
2018-01-04T07:28:29.041Z,44.47
2018-01-04T07:30:56.707Z,51.10
2018-01-04T07:33:24.420Z,60.87
2018-01-04T07:35:52.014Z,50.00
2018-01-04T07:38:19.803Z,51.13
2018-01-04T07:40:47.467Z,49.47
2018-01-04T07:43:15.071Z,68.90
2018-01-04T07:45:42.722Z,52.70
2018-01-04T07:48:10.319Z,65.00
2018-01-04T07:50:37.930Z,104.53
2018-01-04T07:53:05.603Z,78.50
2018-01-04T07:55:33.207Z,81.43
2018-01-04T07:58:00.919Z,72.93
2018-01-04T08:00:28.579Z,98.50
2018-01-04T08:02:56.175Z,83.20
2018-01-04T08:05:23.787Z,98.63
2018-01-04T08:07:51.446Z,59.07
2018-01-04T08:10:19.199Z,61.23
2018-01-04T08:12:46.859Z,65.50
2018-01-04T08:15:14.459Z,48.13
2018-01-04T08:17:42.074Z,61.23
2018-01-04T08:20:09.742Z,60.97
2018-01-04T08:22:37.394Z,71.77
2018-01-04T08:25:04.991Z,76.67
2018-01-04T08:27:32.591Z,54.00
2018-01-04T08:30:00.306Z,39.00
2018-01-04T08:32:27.909Z,32.60
2018-01-04T08:34:55.675Z,23.73
2018-01-04T08:37:23.331Z,27.27
2018-01-04T08:39:50.930Z,29.20
2018-01-04T08:42:18.625Z,26.70
2018-01-04T08:44:46.222Z,32.97
2018-01-04T08:47:13.878Z,25.80
2018-01-04T08:49:41.474Z,24.50
2018-01-04T08:52:09.069Z,23.47
2018-01-04T08:54:36.676Z,19.80
2018-01-04T08:57:04.391Z,33.20
2018-01-04T08:59:32.068Z,21.60
2018-01-04T09:01:59.661Z,33.90
2018-01-04T09:04:27.265Z,40.33
2018-01-04T09:06:54.877Z,26.67
2018-01-04T09:09:22.542Z,30.87
2018-01-04T09:11:50.186Z,26.93
2018-01-04T09:14:17.780Z,28.47
2018-01-04T09:16:45.434Z,25.60
2018-01-04T09:19:13.051Z,24.43
2018-01-04T09:21:40.646Z,30.10
2018-01-04T09:24:08.383Z,25.30
2018-01-04T09:26:35.979Z,20.90
2018-01-04T09:29:03.582Z,29.23
2018-01-04T09:31:31.251Z,38.00
2018-01-04T09:33:58.871Z,38.93
2018-01-04T09:36:26.527Z,36.97
2018-01-04T09:38:54.135Z,39.40
2018-01-04T09:41:21.735Z,37.97
2018-01-04T09:43:49.344Z,38.57
2018-01-04T09:46:16.943Z,43.70
2018-01-04T09:48:44.658Z,42.73
2018-01-04T09:51:12.538Z,63.73
2018-01-04T09:53:40.140Z,61.30
2018-01-04T09:56:07.758Z,59.10
2018-01-04T09:58:35.415Z,58.27
2018-01-04T10:01:03.163Z,50.60
2018-01-04T10:03:30.819Z,53.07
2018-01-04T10:05:58.474Z,56.23
2018-01-04T10:08:26.078Z,50.83
2018-01-04T10:10:53.674Z,48.97
2018-01-04T10:13:21.335Z,56.73
2018-01-04T10:15:48.942Z,48.20
2018-01-04T10:18:16.598Z,54.97
2018-01-04T10:20:44.202Z,64.00
2018-01-04T10:23:11.863Z,56.33
2018-01-04T10:25:39.572Z,72.70
2018-01-04T10:28:07.234Z,79.70
2018-01-04T10:30:34.830Z,70.90
2018-01-04T10:33:02.463Z,67.90
2018-01-04T10:35:30.115Z,57.33
2018-01-04T10:37:57.766Z,37.70
2018-01-04T10:40:25.436Z,34.93
2018-01-04T10:42:53.042Z,30.33
2018-01-04T10:45:20.660Z,41.10
2018-01-04T10:47:48.328Z,28.43
2018-01-04T10:50:15.978Z,41.07
2018-01-04T10:52:43.574Z,35.20
2018-01-04T10:55:11.179Z,31.70
2018-01-04T10:57:38.798Z,41.33
2018-01-04T11:00:06.398Z,33.30
2018-01-04T11:02:34.115Z,34.57
2018-01-04T11:05:01.706Z,44.03
2018-01-04T11:07:29.306Z,36.57
2018-01-04T11:09:56.974Z,41.63
2018-01-04T11:12:24.690Z,50.03
2018-01-04T11:14:52.345Z,45.73
2018-01-04T11:17:20.006Z,38.63
2018-01-04T11:19:47.602Z,42.77
2018-01-04T11:22:15.211Z,34.27
2018-01-04T11:24:42.870Z,36.10
2018-01-04T11:27:10.603Z,38.30
2018-01-04T11:29:38.257Z,36.60
2018-01-04T11:32:05.858Z,39.03
2018-01-04T11:34:33.470Z,36.00
2018-01-04T11:37:01.071Z,36.73
2018-01-04T11:39:28.774Z,41.80
